sensor_id;sensor_type;location;lat;lon;timestamp;P1;durP1;ratioP1;P2;durP2;ratioP2
20727;SDS011;10525;50.154;8.198;2022-08-18T00:02:26;15.20;;;11.13;;
20727;SDS011;10525;50.154;8.198;2022-08-18T00:04:54;12.57;;;11.05;;
20727;SDS011;10525;50.154;8.198;2022-08-18T00:07:23;17.83;;;11.60;;
20727;SDS011;10525;50.154;8.198;2022-08-18T00:09:51;13.52;;;10.98;;
20727;SDS011;10525;50.154;8.198;2022-08-18T00:12:19;13.30;;;11.60;;
20727;SDS011;10525;50.154;8.198;2022-08-18T00:14:47;15.77;;;11.50;;
20727;SDS011;10525;50.154;8.198;2022-08-18T00:17:16;18.67;;;12.40;;
20727;SDS011;10525;50.154;8.198;2022-08-18T00:19:43;15.93;;;12.02;;
20727;SDS011;10525;50.154;8.198;2022-08-18T00:22:12;23.48;;;12.68;;
20727;SDS011;10525;50.154;8.198;2022-08-18T00:24:39;15.45;;;12.45;;
20727;SDS011;10525;50.154;8.198;2022-08-18T00:27:06;13.52;;;11.68;;
20727;SDS011;10525;50.154;8.198;2022-08-18T00:29:34;16.30;;;12.98;;
20727;SDS011;10525;50.154;8.198;2022-08-18T00:32:09;18.35;;;12.02;;
20727;SDS011;10525;50.154;8.198;2022-08-18T00:34:38;17.98;;;12.73;;
20727;SDS011;10525;50.154;8.198;2022-08-18T00:37:05;16.55;;;12.65;;
20727;SDS011;10525;50.154;8.198;2022-08-18T00:39:31;22.40;;;12.63;;
20727;SDS011;10525;50.154;8.198;2022-08-18T00:41:59;17.88;;;12.18;;
20727;SDS011;10525;50.154;8.198;2022-08-18T00:44:36;18.73;;;13.07;;
20727;SDS011;10525;50.154;8.198;2022-08-18T00:47:03;16.73;;;12.98;;
20727;SDS011;10525;50.154;8.198;2022-08-18T00:49:30;14.38;;;12.32;;
20727;SDS011;10525;50.154;8.198;2022-08-18T00:51:58;16.08;;;12.38;;
20727;SDS011;10525;50.154;8.198;2022-08-18T00:54:27;15.23;;;12.80;;
20727;SDS011;10525;50.154;8.198;2022-08-18T00:56:57;17.85;;;12.73;;
20727;SDS011;10525;50.154;8.198;2022-08-18T00:59:27;15.88;;;12.82;;
20727;SDS011;10525;50.154;8.198;2022-08-18T01:01:59;16.75;;;12.02;;
20727;SDS011;10525;50.154;8.198;2022-08-18T01:04:32;17.23;;;13.40;;
20727;SDS011;10525;50.154;8.198;2022-08-18T01:07:09;18.10;;;12.95;;
20727;SDS011;10525;50.154;8.198;2022-08-18T01:09:39;15.90;;;13.13;;
20727;SDS011;10525;50.154;8.198;2022-08-18T01:12:06;17.73;;;13.55;;
20727;SDS011;10525;50.154;8.198;2022-08-18T01:14:34;17.30;;;12.93;;
20727;SDS011;10525;50.154;8.198;2022-08-18T01:17:02;17.63;;;13.18;;
20727;SDS011;10525;50.154;8.198;2022-08-18T01:19:47;15.50;;;12.68;;
20727;SDS011;10525;50.154;8.198;2022-08-18T01:22:34;16.60;;;11.35;;
20727;SDS011;10525;50.154;8.198;2022-08-18T01:25:10;14.32;;;12.02;;
20727;SDS011;10525;50.154;8.198;2022-08-18T01:27:54;21.10;;;13.50;;
20727;SDS011;10525;50.154;8.198;2022-08-18T01:30:21;15.68;;;12.55;;
20727;SDS011;10525;50.154;8.198;2022-08-18T01:32:50;17.67;;;13.10;;
20727;SDS011;10525;50.154;8.198;2022-08-18T01:35:17;18.92;;;14.00;;
20727;SDS011;10525;50.154;8.198;2022-08-18T01:37:46;16.55;;;13.70;;
20727;SDS011;10525;50.154;8.198;2022-08-18T01:40:15;14.25;;;12.75;;
20727;SDS011;10525;50.154;8.198;2022-08-18T01:42:43;15.93;;;13.25;;
20727;SDS011;10525;50.154;8.198;2022-08-18T01:45:10;17.17;;;12.20;;
20727;SDS011;10525;50.154;8.198;2022-08-18T01:47:39;18.40;;;12.70;;
20727;SDS011;10525;50.154;8.198;2022-08-18T01:50:07;16.50;;;12.93;;
20727;SDS011;10525;50.154;8.198;2022-08-18T01:52:36;14.77;;;12.02;;
20727;SDS011;10525;50.154;8.198;2022-08-18T01:55:03;20.08;;;13.68;;
20727;SDS011;10525;50.154;8.198;2022-08-18T01:57:34;16.85;;;12.38;;
20727;SDS011;10525;50.154;8.198;2022-08-18T02:00:03;16.15;;;12.27;;
20727;SDS011;10525;50.154;8.198;2022-08-18T02:02:30;13.68;;;11.63;;
20727;SDS011;10525;50.154;8.198;2022-08-18T02:04:59;13.68;;;11.20;;
20727;SDS011;10525;50.154;8.198;2022-08-18T02:07:29;18.48;;;12.77;;
20727;SDS011;10525;50.154;8.198;2022-08-18T02:09:55;14.50;;;12.52;;
20727;SDS011;10525;50.154;8.198;2022-08-18T02:12:22;20.23;;;13.02;;
20727;SDS011;10525;50.154;8.198;2022-08-18T02:14:50;14.88;;;12.60;;
20727;SDS011;10525;50.154;8.198;2022-08-18T02:17:17;16.25;;;12.43;;
20727;SDS011;10525;50.154;8.198;2022-08-18T02:19:45;15.43;;;12.48;;
20727;SDS011;10525;50.154;8.198;2022-08-18T02:22:14;15.40;;;12.60;;
20727;SDS011;10525;50.154;8.198;2022-08-18T02:24:42;15.77;;;12.25;;
20727;SDS011;10525;50.154;8.198;2022-08-18T02:27:10;15.65;;;12.55;;
20727;SDS011;10525;50.154;8.198;2022-08-18T02:29:38;19.08;;;12.32;;
20727;SDS011;10525;50.154;8.198;2022-08-18T02:32:07;15.75;;;12.50;;
20727;SDS011;10525;50.154;8.198;2022-08-18T02:34:34;19.23;;;13.02;;
20727;SDS011;10525;50.154;8.198;2022-08-18T02:37:01;21.33;;;13.45;;
20727;SDS011;10525;50.154;8.198;2022-08-18T02:39:28;14.80;;;12.32;;
20727;SDS011;10525;50.154;8.198;2022-08-18T02:41:55;17.05;;;12.02;;
20727;SDS011;10525;50.154;8.198;2022-08-18T02:44:22;17.85;;;12.60;;
20727;SDS011;10525;50.154;8.198;2022-08-18T02:46:50;19.17;;;12.93;;
20727;SDS011;10525;50.154;8.198;2022-08-18T02:49:20;16.42;;;13.57;;
20727;SDS011;10525;50.154;8.198;2022-08-18T02:51:46;17.25;;;12.43;;
20727;SDS011;10525;50.154;8.198;2022-08-18T02:54:13;20.92;;;13.32;;
20727;SDS011;10525;50.154;8.198;2022-08-18T02:56:40;17.58;;;13.07;;
20727;SDS011;10525;50.154;8.198;2022-08-18T02:59:10;14.05;;;12.43;;
20727;SDS011;10525;50.154;8.198;2022-08-18T03:01:39;16.02;;;12.18;;
20727;SDS011;10525;50.154;8.198;2022-08-18T03:04:09;14.77;;;11.23;;
20727;SDS011;10525;50.154;8.198;2022-08-18T03:06:39;16.50;;;11.63;;
20727;SDS011;10525;50.154;8.198;2022-08-18T03:09:07;16.05;;;11.82;;
20727;SDS011;10525;50.154;8.198;2022-08-18T03:11:36;15.90;;;12.05;;
20727;SDS011;10525;50.154;8.198;2022-08-18T03:14:03;14.60;;;12.40;;
20727;SDS011;10525;50.154;8.198;2022-08-18T03:16:30;14.30;;;12.75;;
20727;SDS011;10525;50.154;8.198;2022-08-18T03:18:58;16.48;;;12.65;;
20727;SDS011;10525;50.154;8.198;2022-08-18T03:21:26;17.42;;;13.25;;
20727;SDS011;10525;50.154;8.198;2022-08-18T03:23:57;18.55;;;12.80;;
20727;SDS011;10525;50.154;8.198;2022-08-18T03:26:24;17.13;;;13.00;;
20727;SDS011;10525;50.154;8.198;2022-08-18T03:28:52;19.52;;;13.73;;
20727;SDS011;10525;50.154;8.198;2022-08-18T03:31:20;21.27;;;12.77;;
20727;SDS011;10525;50.154;8.198;2022-08-18T03:33:49;17.98;;;13.25;;
20727;SDS011;10525;50.154;8.198;2022-08-18T03:36:18;16.27;;;13.32;;
20727;SDS011;10525;50.154;8.198;2022-08-18T03:38:49;16.42;;;12.35;;
20727;SDS011;10525;50.154;8.198;2022-08-18T03:41:20;17.30;;;12.63;;
20727;SDS011;10525;50.154;8.198;2022-08-18T03:43:48;18.10;;;13.15;;
20727;SDS011;10525;50.154;8.198;2022-08-18T03:46:15;16.67;;;13.45;;
20727;SDS011;10525;50.154;8.198;2022-08-18T03:48:44;16.70;;;13.35;;
20727;SDS011;10525;50.154;8.198;2022-08-18T03:51:13;14.98;;;12.60;;
20727;SDS011;10525;50.154;8.198;2022-08-18T03:53:42;17.33;;;13.43;;
20727;SDS011;10525;50.154;8.198;2022-08-18T03:56:10;15.50;;;12.98;;
20727;SDS011;10525;50.154;8.198;2022-08-18T03:58:42;15.05;;;12.90;;
20727;SDS011;10525;50.154;8.198;2022-08-18T04:01:09;15.13;;;12.40;;
20727;SDS011;10525;50.154;8.198;2022-08-18T04:03:39;13.85;;;12.35;;
20727;SDS011;10525;50.154;8.198;2022-08-18T04:06:06;16.85;;;12.90;;
20727;SDS011;10525;50.154;8.198;2022-08-18T04:08:33;16.25;;;13.63;;
20727;SDS011;10525;50.154;8.198;2022-08-18T04:10:59;16.63;;;12.55;;
20727;SDS011;10525;50.154;8.198;2022-08-18T04:13:26;17.35;;;13.18;;
20727;SDS011;10525;50.154;8.198;2022-08-18T04:15:57;17.45;;;13.13;;
20727;SDS011;10525;50.154;8.198;2022-08-18T04:18:24;17.85;;;12.13;;
20727;SDS011;10525;50.154;8.198;2022-08-18T04:20:52;15.80;;;13.55;;
20727;SDS011;10525;50.154;8.198;2022-08-18T04:23:19;17.27;;;12.35;;
20727;SDS011;10525;50.154;8.198;2022-08-18T04:25:53;14.65;;;11.98;;
20727;SDS011;10525;50.154;8.198;2022-08-18T04:28:23;19.45;;;12.35;;
20727;SDS011;10525;50.154;8.198;2022-08-18T04:30:50;16.17;;;11.98;;
20727;SDS011;10525;50.154;8.198;2022-08-18T04:33:18;16.02;;;11.63;;
20727;SDS011;10525;50.154;8.198;2022-08-18T04:35:45;13.85;;;11.25;;
20727;SDS011;10525;50.154;8.198;2022-08-18T04:38:12;14.52;;;12.18;;
20727;SDS011;10525;50.154;8.198;2022-08-18T04:40:39;15.18;;;12.38;;
20727;SDS011;10525;50.154;8.198;2022-08-18T04:43:06;15.55;;;12.57;;
20727;SDS011;10525;50.154;8.198;2022-08-18T04:45:35;15.63;;;12.77;;
20727;SDS011;10525;50.154;8.198;2022-08-18T04:48:04;13.88;;;12.38;;
20727;SDS011;10525;50.154;8.198;2022-08-18T04:50:34;14.82;;;12.32;;
20727;SDS011;10525;50.154;8.198;2022-08-18T04:53:02;14.70;;;12.30;;
20727;SDS011;10525;50.154;8.198;2022-08-18T04:55:46;17.67;;;13.30;;
20727;SDS011;10525;50.154;8.198;2022-08-18T04:58:15;18.13;;;13.00;;
20727;SDS011;10525;50.154;8.198;2022-08-18T05:00:42;19.73;;;12.30;;
20727;SDS011;10525;50.154;8.198;2022-08-18T05:03:09;19.63;;;12.90;;
20727;SDS011;10525;50.154;8.198;2022-08-18T05:05:37;14.63;;;11.82;;
20727;SDS011;10525;50.154;8.198;2022-08-18T05:08:04;15.55;;;12.38;;
20727;SDS011;10525;50.154;8.198;2022-08-18T05:10:31;14.60;;;11.70;;
20727;SDS011;10525;50.154;8.198;2022-08-18T05:12:57;16.25;;;12.20;;
20727;SDS011;10525;50.154;8.198;2022-08-18T05:15:25;14.05;;;11.10;;
20727;SDS011;10525;50.154;8.198;2022-08-18T05:17:51;16.85;;;11.40;;
20727;SDS011;10525;50.154;8.198;2022-08-18T05:20:18;16.50;;;11.88;;
20727;SDS011;10525;50.154;8.198;2022-08-18T05:22:48;17.20;;;12.25;;
20727;SDS011;10525;50.154;8.198;2022-08-18T05:25:15;14.65;;;11.75;;
20727;SDS011;10525;50.154;8.198;2022-08-18T05:27:42;16.33;;;12.48;;
20727;SDS011;10525;50.154;8.198;2022-08-18T05:30:09;14.05;;;10.75;;
20727;SDS011;10525;50.154;8.198;2022-08-18T05:32:38;15.30;;;11.88;;
20727;SDS011;10525;50.154;8.198;2022-08-18T05:35:07;14.65;;;11.55;;
20727;SDS011;10525;50.154;8.198;2022-08-18T05:37:39;14.88;;;10.38;;
20727;SDS011;10525;50.154;8.198;2022-08-18T05:40:18;13.27;;;10.75;;
20727;SDS011;10525;50.154;8.198;2022-08-18T05:42:48;12.70;;;10.25;;
20727;SDS011;10525;50.154;8.198;2022-08-18T05:45:16;13.60;;;11.27;;
20727;SDS011;10525;50.154;8.198;2022-08-18T05:47:44;12.63;;;10.63;;
20727;SDS011;10525;50.154;8.198;2022-08-18T05:50:11;14.05;;;10.18;;
20727;SDS011;10525;50.154;8.198;2022-08-18T05:52:42;13.73;;;10.93;;
20727;SDS011;10525;50.154;8.198;2022-08-18T05:55:17;14.65;;;11.38;;
20727;SDS011;10525;50.154;8.198;2022-08-18T05:58:09;13.40;;;10.98;;
20727;SDS011;10525;50.154;8.198;2022-08-18T06:00:42;13.95;;;10.43;;
20727;SDS011;10525;50.154;8.198;2022-08-18T06:03:18;15.52;;;11.18;;
20727;SDS011;10525;50.154;8.198;2022-08-18T06:05:51;13.35;;;10.73;;
20727;SDS011;10525;50.154;8.198;2022-08-18T06:08:22;12.77;;;10.57;;
20727;SDS011;10525;50.154;8.198;2022-08-18T06:10:57;14.52;;;10.32;;
20727;SDS011;10525;50.154;8.198;2022-08-18T06:13:23;13.18;;;11.77;;
20727;SDS011;10525;50.154;8.198;2022-08-18T06:15:51;13.90;;;11.75;;
20727;SDS011;10525;50.154;8.198;2022-08-18T06:18:32;16.45;;;12.50;;
20727;SDS011;10525;50.154;8.198;2022-08-18T06:21:13;17.67;;;11.98;;
20727;SDS011;10525;50.154;8.198;2022-08-18T06:23:54;16.80;;;13.52;;
20727;SDS011;10525;50.154;8.198;2022-08-18T06:26:29;19.20;;;13.75;;
20727;SDS011;10525;50.154;8.198;2022-08-18T06:29:04;18.77;;;14.00;;
20727;SDS011;10525;50.154;8.198;2022-08-18T06:31:39;20.33;;;13.48;;
20727;SDS011;10525;50.154;8.198;2022-08-18T06:34:14;21.65;;;15.23;;
20727;SDS011;10525;50.154;8.198;2022-08-18T06:36:51;23.13;;;14.73;;
20727;SDS011;10525;50.154;8.198;2022-08-18T06:39:25;18.95;;;14.15;;
20727;SDS011;10525;50.154;8.198;2022-08-18T06:41:58;20.13;;;14.90;;
20727;SDS011;10525;50.154;8.198;2022-08-18T06:44:28;21.33;;;13.77;;
20727;SDS011;10525;50.154;8.198;2022-08-18T06:46:58;16.35;;;12.98;;
20727;SDS011;10525;50.154;8.198;2022-08-18T06:49:34;18.48;;;13.70;;
20727;SDS011;10525;50.154;8.198;2022-08-18T06:52:18;17.85;;;13.93;;
20727;SDS011;10525;50.154;8.198;2022-08-18T06:54:49;20.45;;;13.93;;
20727;SDS011;10525;50.154;8.198;2022-08-18T06:57:22;19.00;;;14.52;;
20727;SDS011;10525;50.154;8.198;2022-08-18T07:00:04;23.42;;;15.88;;
20727;SDS011;10525;50.154;8.198;2022-08-18T07:02:38;22.23;;;15.05;;
20727;SDS011;10525;50.154;8.198;2022-08-18T07:05:16;19.33;;;14.55;;
20727;SDS011;10525;50.154;8.198;2022-08-18T07:10:43;25.60;;;17.98;;
20727;SDS011;10525;50.154;8.198;2022-08-18T07:13:20;22.27;;;16.40;;
20727;SDS011;10525;50.154;8.198;2022-08-18T07:15:50;30.10;;;17.27;;
20727;SDS011;10525;50.154;8.198;2022-08-18T07:18:23;33.17;;;17.77;;
20727;SDS011;10525;50.154;8.198;2022-08-18T07:20:52;29.33;;;16.92;;
20727;SDS011;10525;50.154;8.198;2022-08-18T07:23:28;26.00;;;16.88;;
20727;SDS011;10525;50.154;8.198;2022-08-18T07:26:03;24.73;;;17.38;;
20727;SDS011;10525;50.154;8.198;2022-08-18T07:28:35;25.38;;;18.13;;
20727;SDS011;10525;50.154;8.198;2022-08-18T07:31:08;25.90;;;18.27;;
20727;SDS011;10525;50.154;8.198;2022-08-18T07:33:41;29.05;;;17.92;;
20727;SDS011;10525;50.154;8.198;2022-08-18T07:36:14;28.73;;;19.88;;
20727;SDS011;10525;50.154;8.198;2022-08-18T07:38:44;31.20;;;19.13;;
20727;SDS011;10525;50.154;8.198;2022-08-18T07:41:16;27.83;;;18.77;;
20727;SDS011;10525;50.154;8.198;2022-08-18T07:43:56;26.10;;;17.88;;
20727;SDS011;10525;50.154;8.198;2022-08-18T07:46:31;26.13;;;17.55;;
20727;SDS011;10525;50.154;8.198;2022-08-18T07:49:03;27.45;;;17.88;;
20727;SDS011;10525;50.154;8.198;2022-08-18T07:51:33;24.95;;;17.98;;
20727;SDS011;10525;50.154;8.198;2022-08-18T07:54:09;27.55;;;17.27;;
20727;SDS011;10525;50.154;8.198;2022-08-18T07:56:45;30.10;;;17.70;;
20727;SDS011;10525;50.154;8.198;2022-08-18T07:59:19;23.02;;;17.42;;
20727;SDS011;10525;50.154;8.198;2022-08-18T08:01:51;25.73;;;17.35;;
20727;SDS011;10525;50.154;8.198;2022-08-18T08:04:25;24.55;;;16.30;;
20727;SDS011;10525;50.154;8.198;2022-08-18T08:06:59;26.13;;;17.08;;
20727;SDS011;10525;50.154;8.198;2022-08-18T08:09:34;24.83;;;15.82;;
20727;SDS011;10525;50.154;8.198;2022-08-18T08:12:11;26.73;;;16.92;;
20727;SDS011;10525;50.154;8.198;2022-08-18T08:14:49;23.63;;;16.70;;
20727;SDS011;10525;50.154;8.198;2022-08-18T08:17:21;23.83;;;16.58;;
20727;SDS011;10525;50.154;8.198;2022-08-18T08:20:03;22.48;;;15.40;;
20727;SDS011;10525;50.154;8.198;2022-08-18T08:22:54;22.63;;;16.10;;
20727;SDS011;10525;50.154;8.198;2022-08-18T08:25:30;24.70;;;15.88;;
20727;SDS011;10525;50.154;8.198;2022-08-18T08:28:05;24.67;;;16.48;;
20727;SDS011;10525;50.154;8.198;2022-08-18T08:30:45;22.02;;;16.55;;
20727;SDS011;10525;50.154;8.198;2022-08-18T08:33:21;26.33;;;17.02;;
20727;SDS011;10525;50.154;8.198;2022-08-18T08:35:53;34.90;;;17.83;;
20727;SDS011;10525;50.154;8.198;2022-08-18T08:38:26;28.17;;;18.55;;
20727;SDS011;10525;50.154;8.198;2022-08-18T08:41:00;31.55;;;19.65;;
20727;SDS011;10525;50.154;8.198;2022-08-18T08:43:29;28.65;;;19.35;;
20727;SDS011;10525;50.154;8.198;2022-08-18T08:46:03;33.83;;;21.05;;
20727;SDS011;10525;50.154;8.198;2022-08-18T08:48:37;33.10;;;19.38;;
20727;SDS011;10525;50.154;8.198;2022-08-18T08:51:11;32.28;;;20.85;;
20727;SDS011;10525;50.154;8.198;2022-08-18T08:53:53;29.73;;;19.33;;
20727;SDS011;10525;50.154;8.198;2022-08-18T08:56:29;37.08;;;20.52;;
20727;SDS011;10525;50.154;8.198;2022-08-18T08:59:00;32.58;;;19.52;;
20727;SDS011;10525;50.154;8.198;2022-08-18T09:01:33;30.38;;;18.95;;
20727;SDS011;10525;50.154;8.198;2022-08-18T09:04:16;32.72;;;19.50;;
20727;SDS011;10525;50.154;8.198;2022-08-18T09:06:56;28.23;;;17.48;;
20727;SDS011;10525;50.154;8.198;2022-08-18T09:09:42;33.55;;;18.95;;
20727;SDS011;10525;50.154;8.198;2022-08-18T09:12:47;27.35;;;18.75;;
20727;SDS011;10525;50.154;8.198;2022-08-18T09:15:34;27.60;;;17.98;;
20727;SDS011;10525;50.154;8.198;2022-08-18T09:18:14;26.10;;;17.17;;
20727;SDS011;10525;50.154;8.198;2022-08-18T09:20:54;26.92;;;17.92;;
20727;SDS011;10525;50.154;8.198;2022-08-18T09:23:29;26.52;;;17.38;;
20727;SDS011;10525;50.154;8.198;2022-08-18T09:26:19;24.92;;;16.92;;
20727;SDS011;10525;50.154;8.198;2022-08-18T09:29:11;34.35;;;19.63;;
20727;SDS011;10525;50.154;8.198;2022-08-18T09:31:41;25.90;;;17.85;;
20727;SDS011;10525;50.154;8.198;2022-08-18T09:34:16;29.05;;;19.88;;
20727;SDS011;10525;50.154;8.198;2022-08-18T09:37:11;26.05;;;17.35;;
20727;SDS011;10525;50.154;8.198;2022-08-18T09:39:44;24.63;;;17.83;;
20727;SDS011;10525;50.154;8.198;2022-08-18T09:42:40;25.92;;;17.90;;
20727;SDS011;10525;50.154;8.198;2022-08-18T09:48:23;26.58;;;18.90;;
20727;SDS011;10525;50.154;8.198;2022-08-18T09:50:56;29.42;;;19.02;;
20727;SDS011;10525;50.154;8.198;2022-08-18T09:53:52;28.00;;;18.65;;
20727;SDS011;10525;50.154;8.198;2022-08-18T09:59:56;26.98;;;18.92;;
20727;SDS011;10525;50.154;8.198;2022-08-18T10:05:38;30.08;;;18.98;;
20727;SDS011;10525;50.154;8.198;2022-08-18T10:08:27;28.98;;;18.77;;
20727;SDS011;10525;50.154;8.198;2022-08-18T10:11:07;32.25;;;18.65;;
20727;SDS011;10525;50.154;8.198;2022-08-18T10:13:53;29.73;;;19.40;;
20727;SDS011;10525;50.154;8.198;2022-08-18T10:16:32;27.95;;;20.00;;
20727;SDS011;10525;50.154;8.198;2022-08-18T10:19:08;28.23;;;18.55;;
20727;SDS011;10525;50.154;8.198;2022-08-18T10:22:03;28.48;;;18.95;;
20727;SDS011;10525;50.154;8.198;2022-08-18T10:24:35;27.63;;;18.52;;
20727;SDS011;10525;50.154;8.198;2022-08-18T10:27:05;27.48;;;18.77;;
20727;SDS011;10525;50.154;8.198;2022-08-18T10:29:51;26.08;;;18.27;;
20727;SDS011;10525;50.154;8.198;2022-08-18T10:38:27;26.60;;;19.67;;
20727;SDS011;10525;50.154;8.198;2022-08-18T10:41:08;31.60;;;18.98;;
20727;SDS011;10525;50.154;8.198;2022-08-18T10:43:44;29.30;;;18.88;;
20727;SDS011;10525;50.154;8.198;2022-08-18T10:46:14;25.73;;;18.52;;
20727;SDS011;10525;50.154;8.198;2022-08-18T10:48:42;28.17;;;17.73;;
20727;SDS011;10525;50.154;8.198;2022-08-18T10:51:12;29.70;;;20.20;;
20727;SDS011;10525;50.154;8.198;2022-08-18T10:53:46;27.13;;;18.73;;
20727;SDS011;10525;50.154;8.198;2022-08-18T10:56:25;29.23;;;18.58;;
20727;SDS011;10525;50.154;8.198;2022-08-18T10:58:59;25.08;;;17.20;;
20727;SDS011;10525;50.154;8.198;2022-08-18T11:01:37;30.13;;;20.08;;
20727;SDS011;10525;50.154;8.198;2022-08-18T11:04:22;29.40;;;19.55;;
20727;SDS011;10525;50.154;8.198;2022-08-18T11:06:55;29.77;;;19.50;;
20727;SDS011;10525;50.154;8.198;2022-08-18T11:09:29;28.77;;;18.52;;
20727;SDS011;10525;50.154;8.198;2022-08-18T11:11:58;28.48;;;19.45;;
20727;SDS011;10525;50.154;8.198;2022-08-18T11:14:32;31.88;;;21.10;;
20727;SDS011;10525;50.154;8.198;2022-08-18T11:17:15;28.65;;;19.60;;
20727;SDS011;10525;50.154;8.198;2022-08-18T11:19:49;34.08;;;20.50;;
20727;SDS011;10525;50.154;8.198;2022-08-18T11:22:21;33.72;;;20.92;;
20727;SDS011;10525;50.154;8.198;2022-08-18T11:24:48;35.63;;;22.48;;
20727;SDS011;10525;50.154;8.198;2022-08-18T11:27:19;30.25;;;20.83;;
20727;SDS011;10525;50.154;8.198;2022-08-18T11:29:47;29.55;;;20.27;;
20727;SDS011;10525;50.154;8.198;2022-08-18T11:32:15;31.00;;;20.40;;
20727;SDS011;10525;50.154;8.198;2022-08-18T11:34:46;29.92;;;20.52;;
20727;SDS011;10525;50.154;8.198;2022-08-18T11:37:19;30.05;;;20.58;;
20727;SDS011;10525;50.154;8.198;2022-08-18T11:39:50;31.63;;;21.90;;
20727;SDS011;10525;50.154;8.198;2022-08-18T11:42:25;32.03;;;19.98;;
20727;SDS011;10525;50.154;8.198;2022-08-18T11:44:53;29.95;;;19.98;;
20727;SDS011;10525;50.154;8.198;2022-08-18T11:47:26;28.75;;;19.58;;
20727;SDS011;10525;50.154;8.198;2022-08-18T11:49:55;29.55;;;20.75;;
20727;SDS011;10525;50.154;8.198;2022-08-18T11:52:26;32.78;;;20.77;;
20727;SDS011;10525;50.154;8.198;2022-08-18T11:54:57;27.92;;;20.27;;
20727;SDS011;10525;50.154;8.198;2022-08-18T11:57:28;33.97;;;20.73;;
20727;SDS011;10525;50.154;8.198;2022-08-18T12:03:21;30.98;;;21.00;;
20727;SDS011;10525;50.154;8.198;2022-08-18T12:05:56;31.20;;;19.25;;
20727;SDS011;10525;50.154;8.198;2022-08-18T12:08:27;25.23;;;18.77;;
20727;SDS011;10525;50.154;8.198;2022-08-18T12:11:03;27.25;;;18.52;;
20727;SDS011;10525;50.154;8.198;2022-08-18T12:13:33;27.95;;;18.75;;
20727;SDS011;10525;50.154;8.198;2022-08-18T12:16:07;25.52;;;15.93;;
20727;SDS011;10525;50.154;8.198;2022-08-18T12:18:35;26.50;;;17.73;;
20727;SDS011;10525;50.154;8.198;2022-08-18T12:21:02;25.17;;;15.93;;
20727;SDS011;10525;50.154;8.198;2022-08-18T12:23:30;23.05;;;16.85;;
20727;SDS011;10525;50.154;8.198;2022-08-18T12:25:57;23.35;;;16.75;;
20727;SDS011;10525;50.154;8.198;2022-08-18T12:28:26;23.73;;;16.95;;
20727;SDS011;10525;50.154;8.198;2022-08-18T12:30:54;23.77;;;17.15;;
20727;SDS011;10525;50.154;8.198;2022-08-18T12:33:21;23.13;;;16.77;;
20727;SDS011;10525;50.154;8.198;2022-08-18T12:35:48;23.50;;;16.77;;
20727;SDS011;10525;50.154;8.198;2022-08-18T12:38:14;24.48;;;16.70;;
20727;SDS011;10525;50.154;8.198;2022-08-18T12:40:42;22.50;;;15.50;;
20727;SDS011;10525;50.154;8.198;2022-08-18T12:43:08;20.92;;;14.57;;
20727;SDS011;10525;50.154;8.198;2022-08-18T12:45:36;18.52;;;14.40;;
20727;SDS011;10525;50.154;8.198;2022-08-18T12:48:04;22.20;;;15.38;;
20727;SDS011;10525;50.154;8.198;2022-08-18T12:50:31;22.30;;;14.48;;
20727;SDS011;10525;50.154;8.198;2022-08-18T12:52:59;19.17;;;14.77;;
20727;SDS011;10525;50.154;8.198;2022-08-18T12:55:26;22.17;;;15.82;;
20727;SDS011;10525;50.154;8.198;2022-08-18T12:57:55;21.75;;;15.20;;
20727;SDS011;10525;50.154;8.198;2022-08-18T13:00:21;23.10;;;16.40;;
20727;SDS011;10525;50.154;8.198;2022-08-18T13:02:48;23.70;;;15.48;;
20727;SDS011;10525;50.154;8.198;2022-08-18T13:05:17;18.40;;;14.07;;
20727;SDS011;10525;50.154;8.198;2022-08-18T13:07:45;20.50;;;15.10;;
20727;SDS011;10525;50.154;8.198;2022-08-18T13:10:11;19.73;;;14.25;;
20727;SDS011;10525;50.154;8.198;2022-08-18T13:12:38;22.70;;;15.25;;
20727;SDS011;10525;50.154;8.198;2022-08-18T13:15:05;17.85;;;13.18;;
20727;SDS011;10525;50.154;8.198;2022-08-18T13:17:32;22.60;;;12.52;;
20727;SDS011;10525;50.154;8.198;2022-08-18T13:20:04;16.58;;;12.20;;
20727;SDS011;10525;50.154;8.198;2022-08-18T13:22:34;14.20;;;11.10;;
20727;SDS011;10525;50.154;8.198;2022-08-18T13:25:01;13.68;;;11.20;;
20727;SDS011;10525;50.154;8.198;2022-08-18T13:27:31;14.38;;;10.45;;
20727;SDS011;10525;50.154;8.198;2022-08-18T13:29:57;12.43;;;10.63;;
20727;SDS011;10525;50.154;8.198;2022-08-18T13:32:24;14.73;;;10.98;;
20727;SDS011;10525;50.154;8.198;2022-08-18T13:34:51;12.43;;;10.98;;
20727;SDS011;10525;50.154;8.198;2022-08-18T13:37:17;9.80;;;8.77;;
20727;SDS011;10525;50.154;8.198;2022-08-18T13:39:45;9.88;;;8.50;;
20727;SDS011;10525;50.154;8.198;2022-08-18T13:42:12;12.25;;;9.73;;
20727;SDS011;10525;50.154;8.198;2022-08-18T13:44:39;17.15;;;11.77;;
20727;SDS011;10525;50.154;8.198;2022-08-18T13:47:06;15.73;;;11.05;;
20727;SDS011;10525;50.154;8.198;2022-08-18T13:49:32;18.55;;;12.43;;
20727;SDS011;10525;50.154;8.198;2022-08-18T13:51:59;17.35;;;11.95;;
20727;SDS011;10525;50.154;8.198;2022-08-18T13:54:27;17.38;;;11.57;;
20727;SDS011;10525;50.154;8.198;2022-08-18T13:56:58;13.90;;;11.23;;
20727;SDS011;10525;50.154;8.198;2022-08-18T13:59:26;14.88;;;10.70;;
20727;SDS011;10525;50.154;8.198;2022-08-18T14:01:55;16.73;;;10.23;;
20727;SDS011;10525;50.154;8.198;2022-08-18T14:04:23;14.32;;;10.95;;
20727;SDS011;10525;50.154;8.198;2022-08-18T14:06:51;16.38;;;11.50;;
20727;SDS011;10525;50.154;8.198;2022-08-18T14:09:18;19.35;;;12.02;;
20727;SDS011;10525;50.154;8.198;2022-08-18T14:11:45;17.02;;;13.13;;
20727;SDS011;10525;50.154;8.198;2022-08-18T14:14:14;17.73;;;12.63;;
20727;SDS011;10525;50.154;8.198;2022-08-18T14:16:42;18.35;;;12.95;;
20727;SDS011;10525;50.154;8.198;2022-08-18T14:19:08;25.13;;;14.18;;
20727;SDS011;10525;50.154;8.198;2022-08-18T14:21:53;22.52;;;14.75;;
20727;SDS011;10525;50.154;8.198;2022-08-18T14:24:38;22.88;;;15.80;;
20727;SDS011;10525;50.154;8.198;2022-08-18T14:27:25;21.40;;;15.02;;
20727;SDS011;10525;50.154;8.198;2022-08-18T14:29:55;20.77;;;13.90;;
20727;SDS011;10525;50.154;8.198;2022-08-18T14:32:23;19.20;;;13.98;;
20727;SDS011;10525;50.154;8.198;2022-08-18T14:34:51;22.80;;;15.13;;
20727;SDS011;10525;50.154;8.198;2022-08-18T14:37:18;20.10;;;14.73;;
20727;SDS011;10525;50.154;8.198;2022-08-18T14:39:45;15.07;;;11.98;;
20727;SDS011;10525;50.154;8.198;2022-08-18T14:42:13;16.65;;;11.77;;
20727;SDS011;10525;50.154;8.198;2022-08-18T14:44:41;16.25;;;11.68;;
20727;SDS011;10525;50.154;8.198;2022-08-18T14:47:09;17.95;;;12.93;;
20727;SDS011;10525;50.154;8.198;2022-08-18T14:49:37;19.40;;;12.70;;
20727;SDS011;10525;50.154;8.198;2022-08-18T14:52:05;17.45;;;11.15;;
20727;SDS011;10525;50.154;8.198;2022-08-18T14:54:32;10.93;;;9.35;;
20727;SDS011;10525;50.154;8.198;2022-08-18T14:57:01;10.15;;;9.07;;
20727;SDS011;10525;50.154;8.198;2022-08-18T14:59:29;14.63;;;11.40;;
20727;SDS011;10525;50.154;8.198;2022-08-18T15:01:57;16.42;;;11.88;;
20727;SDS011;10525;50.154;8.198;2022-08-18T15:04:25;16.58;;;12.50;;
20727;SDS011;10525;50.154;8.198;2022-08-18T15:06:52;19.80;;;12.43;;
20727;SDS011;10525;50.154;8.198;2022-08-18T15:09:19;15.93;;;12.60;;